createdAt,value
2018-12-22T00:00:31.672Z,48.5
2018-12-22T00:01:32.088Z,48.5
2018-12-22T00:02:32.656Z,48.54
2018-12-22T00:03:31.557Z,48.5
2018-12-22T00:04:31.876Z,48.51
2018-12-22T00:05:31.645Z,48.5
2018-12-22T00:06:31.601Z,48.55
2018-12-22T00:07:31.746Z,48.51
2018-12-22T00:08:31.675Z,48.53
2018-12-22T00:09:31.558Z,48.54
2018-12-22T00:10:31.849Z,48.57
2018-12-22T00:11:31.593Z,48.53
2018-12-22T00:12:31.663Z,48.56
2018-12-22T00:13:31.653Z,48.55
2018-12-22T00:14:32.183Z,48.58
2018-12-22T00:15:32.087Z,48.58
2018-12-22T00:16:31.584Z,48.6
2018-12-22T00:17:31.914Z,48.55
2018-12-22T00:18:31.454Z,48.58
2018-12-22T00:19:31.547Z,48.57
2018-12-22T00:20:31.809Z,48.59
2018-12-22T00:21:31.557Z,48.56
2018-12-22T00:22:31.674Z,48.58
2018-12-22T00:23:31.583Z,48.59
2018-12-22T00:24:31.689Z,48.63
2018-12-22T00:25:31.509Z,48.56
2018-12-22T00:26:31.771Z,48.61
2018-12-22T00:27:31.796Z,48.58
2018-12-22T00:28:31.588Z,48.6
2018-12-22T00:29:31.835Z,48.58
2018-12-22T00:30:31.632Z,48.59
2018-12-22T00:31:30.857Z,48.62
2018-12-22T00:32:31.518Z,48.61
2018-12-22T00:33:31.812Z,48.63
2018-12-22T00:34:31.618Z,48.62
2018-12-22T00:35:31.903Z,48.63
2018-12-22T00:36:31.396Z,48.66
2018-12-22T00:37:32.376Z,48.64
2018-12-22T00:38:31.787Z,48.62
2018-12-22T00:39:31.783Z,48.63
2018-12-22T00:40:31.755Z,48.66
2018-12-22T00:41:31.030Z,48.64
2018-12-22T00:42:31.705Z,48.64
2018-12-22T00:43:31.492Z,48.65
2018-12-22T00:44:31.744Z,48.67
2018-12-22T00:45:31.567Z,48.68
2018-12-22T00:46:31.031Z,48.65
2018-12-22T00:47:32.413Z,48.66
2018-12-22T00:48:31.742Z,48.65
2018-12-22T00:49:31.508Z,48.66
2018-12-22T00:50:31.530Z,48.66
2018-12-22T00:51:31.615Z,48.61
2018-12-22T00:52:31.436Z,48.71
2018-12-22T00:53:31.922Z,48.71
2018-12-22T00:54:31.725Z,48.67
2018-12-22T00:55:31.042Z,48.68
2018-12-22T00:56:31.629Z,48.69
2018-12-22T00:57:31.437Z,48.7
2018-12-22T00:58:31.666Z,48.71
2018-12-22T00:59:31.738Z,48.71
2018-12-22T01:00:31.765Z,48.68
2018-12-22T01:01:31.579Z,48.71
2018-12-22T01:02:31.847Z,48.73
2018-12-22T01:03:31.765Z,48.69
2018-12-22T01:04:31.002Z,48.71
2018-12-22T01:05:31.742Z,48.71
2018-12-22T01:06:31.520Z,48.76
2018-12-22T01:07:31.511Z,48.72
2018-12-22T01:08:31.646Z,48.74
2018-12-22T01:09:31.965Z,48.73
2018-12-22T01:10:31.752Z,48.76
2018-12-22T01:11:31.739Z,48.72
2018-12-22T01:12:31.595Z,48.75
2018-12-22T01:13:31.616Z,48.72
2018-12-22T01:14:31.397Z,48.73
2018-12-22T01:15:31.720Z,48.75
2018-12-22T01:16:31.233Z,48.71
2018-12-22T01:17:31.483Z,48.74
2018-12-22T01:18:31.566Z,48.73
2018-12-22T01:19:31.568Z,48.76
2018-12-22T01:20:31.377Z,48.78
2018-12-22T01:21:31.738Z,48.77
2018-12-22T01:22:31.510Z,48.81
2018-12-22T01:23:31.743Z,48.78
2018-12-22T01:24:31.546Z,48.78
2018-12-22T01:25:31.329Z,48.75
2018-12-22T01:26:31.626Z,48.77
2018-12-22T01:27:31.391Z,48.72
2018-12-22T01:28:39.919Z,48.78
2018-12-22T01:29:31.387Z,48.77
2018-12-22T01:30:31.485Z,48.72
2018-12-22T01:31:31.476Z,48.78
2018-12-22T01:32:31.547Z,48.76
2018-12-22T01:33:31.845Z,48.76
2018-12-22T01:34:31.496Z,48.81
2018-12-22T01:35:31.665Z,48.75
2018-12-22T01:36:31.712Z,48.81
2018-12-22T01:37:30.775Z,48.76
2018-12-22T01:38:31.259Z,48.8
2018-12-22T01:39:31.918Z,48.79
2018-12-22T01:40:31.151Z,48.82
2018-12-22T01:41:32.000Z,48.74
2018-12-22T01:42:31.756Z,48.83
2018-12-22T01:43:31.814Z,48.79
2018-12-22T01:44:32.114Z,48.81
2018-12-22T01:45:31.631Z,48.79
2018-12-22T01:46:31.858Z,48.79
2018-12-22T01:47:31.461Z,48.77
2018-12-22T01:48:31.434Z,48.79
2018-12-22T01:49:30.964Z,48.77
2018-12-22T01:50:31.564Z,48.78
2018-12-22T01:51:31.870Z,48.81
2018-12-22T01:52:31.417Z,48.83
2018-12-22T01:53:31.925Z,48.83
2018-12-22T01:54:32.237Z,48.8
2018-12-22T01:55:31.012Z,48.81
2018-12-22T01:56:31.844Z,48.78
2018-12-22T01:57:31.610Z,48.8
2018-12-22T01:58:31.417Z,48.79
2018-12-22T01:59:31.422Z,48.83
2018-12-22T02:00:31.481Z,48.84
2018-12-22T02:01:31.521Z,48.78
2018-12-22T02:02:32.117Z,48.83
2018-12-22T02:03:31.602Z,48.8
2018-12-22T02:04:31.616Z,48.82
2018-12-22T02:05:31.689Z,48.77
2018-12-22T02:06:31.469Z,48.84
2018-12-22T02:07:31.769Z,48.8
2018-12-22T02:08:31.768Z,48.84
2018-12-22T02:09:31.575Z,48.81
2018-12-22T02:10:31.686Z,48.83
2018-12-22T02:11:31.626Z,48.81
2018-12-22T02:12:31.511Z,48.8
2018-12-22T02:13:31.500Z,48.82
2018-12-22T02:14:31.554Z,48.81
2018-12-22T02:15:31.614Z,48.84
2018-12-22T02:16:31.419Z,48.82
2018-12-22T02:17:31.672Z,48.81
2018-12-22T02:18:31.947Z,48.81
2018-12-22T02:19:31.262Z,48.85
2018-12-22T02:20:31.573Z,48.87
2018-12-22T02:21:31.651Z,48.82
2018-12-22T02:22:31.680Z,48.88
2018-12-22T02:23:31.644Z,48.85
2018-12-22T02:24:31.769Z,48.82
2018-12-22T02:25:31.502Z,48.87
2018-12-22T02:26:31.834Z,48.85
2018-12-22T02:27:31.319Z,48.83
2018-12-22T02:28:31.375Z,48.85
2018-12-22T02:29:31.669Z,48.84
2018-12-22T02:30:31.712Z,48.86
2018-12-22T02:31:31.518Z,48.83
2018-12-22T02:32:31.570Z,48.87
2018-12-22T02:33:31.559Z,48.83
2018-12-22T02:34:31.361Z,48.83
2018-12-22T02:35:31.637Z,48.83
2018-12-22T02:36:31.744Z,48.85
2018-12-22T02:37:31.795Z,48.86
2018-12-22T02:38:31.541Z,48.82
2018-12-22T02:39:31.598Z,48.84
2018-12-22T02:40:31.918Z,48.87
2018-12-22T02:41:31.739Z,48.87
2018-12-22T02:42:32.072Z,48.84
2018-12-22T02:43:32.158Z,48.87
2018-12-22T02:44:31.961Z,48.84
2018-12-22T02:45:31.617Z,48.85
2018-12-22T02:46:31.363Z,48.84
2018-12-22T02:47:31.649Z,48.86
2018-12-22T02:48:31.460Z,48.83
2018-12-22T02:49:31.590Z,48.86
2018-12-22T02:50:31.570Z,48.83
2018-12-22T02:51:31.873Z,48.86
2018-12-22T02:52:31.423Z,48.85
2018-12-22T02:53:31.933Z,48.83
2018-12-22T02:54:31.659Z,48.88
2018-12-22T02:55:31.699Z,48.85
2018-12-22T02:56:31.294Z,48.84
2018-12-22T02:57:31.913Z,48.85
2018-12-22T02:58:31.712Z,48.86
2018-12-22T02:59:31.678Z,48.86
2018-12-22T03:00:31.552Z,48.84
2018-12-22T03:01:31.544Z,48.85
2018-12-22T03:02:31.363Z,48.8
2018-12-22T03:03:31.787Z,48.82
2018-12-22T03:04:31.454Z,48.83
2018-12-22T03:05:31.471Z,48.81
2018-12-22T03:06:31.540Z,48.8
2018-12-22T03:07:31.826Z,48.84
2018-12-22T03:08:31.756Z,48.82
2018-12-22T03:09:31.616Z,48.81
2018-12-22T03:10:31.897Z,48.84
2018-12-22T03:11:31.485Z,48.84
2018-12-22T03:12:31.773Z,48.85
2018-12-22T03:13:31.584Z,48.83
2018-12-22T03:14:31.840Z,48.79
2018-12-22T03:15:31.669Z,48.81
2018-12-22T03:16:31.618Z,48.81
2018-12-22T03:17:31.743Z,48.81
2018-12-22T03:18:31.959Z,48.8
2018-12-22T03:19:31.781Z,48.82
2018-12-22T03:20:31.878Z,48.83
2018-12-22T03:21:31.598Z,48.86
2018-12-22T03:22:32.387Z,48.85
2018-12-22T03:23:31.673Z,48.83
2018-12-22T03:24:31.441Z,48.86
2018-12-22T03:25:31.287Z,48.82
2018-12-22T03:26:31.783Z,48.86
2018-12-22T03:27:31.353Z,48.83
2018-12-22T03:28:31.426Z,48.86
2018-12-22T03:29:31.737Z,48.88
2018-12-22T03:30:32.063Z,48.82
2018-12-22T03:31:31.800Z,48.83
2018-12-22T03:32:31.598Z,48.86
2018-12-22T03:33:31.592Z,48.85
2018-12-22T03:34:31.689Z,48.83
2018-12-22T03:35:31.458Z,48.84
2018-12-22T03:36:31.432Z,48.82
2018-12-22T03:37:31.501Z,48.8
2018-12-22T03:38:32.002Z,48.82
2018-12-22T03:39:31.328Z,48.86
2018-12-22T03:40:31.859Z,48.8
2018-12-22T03:41:31.819Z,48.81
2018-12-22T03:42:31.634Z,48.85
2018-12-22T03:43:30.982Z,48.86
2018-12-22T03:44:31.805Z,48.86
2018-12-22T03:45:31.900Z,48.9
2018-12-22T03:46:31.039Z,48.84
2018-12-22T03:47:31.693Z,48.87
2018-12-22T03:48:32.306Z,48.84
2018-12-22T03:49:31.586Z,48.87
2018-12-22T03:50:31.840Z,48.89
2018-12-22T03:51:30.859Z,48.88
2018-12-22T03:52:31.173Z,48.85
2018-12-22T03:53:31.468Z,48.86
2018-12-22T03:54:31.784Z,48.92
2018-12-22T03:55:31.289Z,48.88
2018-12-22T03:56:31.778Z,48.84
2018-12-22T03:57:31.397Z,48.82
2018-12-22T03:58:31.675Z,48.86
2018-12-22T03:59:31.676Z,48.85
2018-12-22T04:00:31.010Z,48.82
2018-12-22T04:01:31.821Z,48.89
2018-12-22T04:02:31.360Z,48.88
2018-12-22T04:03:31.646Z,48.88
2018-12-22T04:04:32.098Z,48.91
2018-12-22T04:05:31.690Z,48.89
2018-12-22T04:06:31.550Z,48.91
2018-12-22T04:07:31.523Z,48.92
2018-12-22T04:08:31.879Z,48.9
2018-12-22T04:09:32.337Z,48.9
2018-12-22T04:10:31.672Z,48.9
2018-12-22T04:11:31.489Z,48.92
2018-12-22T04:12:31.802Z,48.92
2018-12-22T04:13:31.516Z,48.9
2018-12-22T04:14:31.695Z,48.87
2018-12-22T04:15:31.846Z,48.9
2018-12-22T04:16:31.651Z,48.9
2018-12-22T04:17:31.712Z,48.92
2018-12-22T04:18:31.731Z,48.9
2018-12-22T04:19:31.548Z,48.91
2018-12-22T04:20:31.526Z,48.93
2018-12-22T04:21:31.597Z,48.89
2018-12-22T04:22:31.630Z,48.89
2018-12-22T04:23:31.658Z,48.94
2018-12-22T04:24:31.996Z,48.95
2018-12-22T04:25:30.970Z,48.96
2018-12-22T04:26:31.826Z,48.9
2018-12-22T04:27:31.381Z,48.93
2018-12-22T04:28:31.907Z,48.88
2018-12-22T04:29:34.685Z,48.91
2018-12-22T04:30:31.932Z,48.9
2018-12-22T04:31:30.862Z,48.93
2018-12-22T04:32:31.518Z,48.96
2018-12-22T04:33:31.538Z,48.95
2018-12-22T04:34:32.104Z,48.95
2018-12-22T04:35:31.654Z,48.96
2018-12-22T04:36:31.461Z,48.95
2018-12-22T04:37:31.141Z,48.91
2018-12-22T04:38:31.459Z,48.9
2018-12-22T04:39:31.829Z,48.92
2018-12-22T04:40:31.813Z,48.91
2018-12-22T04:41:31.536Z,48.92
2018-12-22T04:42:31.505Z,48.95
2018-12-22T04:43:31.557Z,48.96
2018-12-22T04:44:31.837Z,48.97
2018-12-22T04:45:31.891Z,48.98
2018-12-22T04:46:31.650Z,48.98
2018-12-22T04:47:31.765Z,48.95
2018-12-22T04:48:31.467Z,48.91
2018-12-22T04:49:31.486Z,48.94
2018-12-22T04:50:31.721Z,48.92
2018-12-22T04:51:31.609Z,48.91
2018-12-22T04:52:31.404Z,48.9
2018-12-22T04:53:31.617Z,48.94
2018-12-22T04:54:31.423Z,48.88
2018-12-22T04:55:31.491Z,48.88
2018-12-22T04:56:31.586Z,48.87
2018-12-22T04:57:31.504Z,48.82
2018-12-22T04:58:31.593Z,48.84
2018-12-22T04:59:31.632Z,48.76
2018-12-22T05:00:31.401Z,48.7
2018-12-22T05:01:31.640Z,48.71
2018-12-22T05:02:31.934Z,48.67
2018-12-22T05:03:31.543Z,48.67
2018-12-22T05:04:31.494Z,48.62
2018-12-22T05:05:31.870Z,48.62
2018-12-22T05:06:31.619Z,48.59
2018-12-22T05:07:31.450Z,48.55
2018-12-22T05:08:31.674Z,48.53
2018-12-22T05:09:31.208Z,48.57
2018-12-22T05:10:31.561Z,48.52
2018-12-22T05:11:31.510Z,48.53
2018-12-22T05:12:31.768Z,48.53
2018-12-22T05:13:31.194Z,48.56
2018-12-22T05:14:31.718Z,48.55
2018-12-22T05:15:31.256Z,48.58
2018-12-22T05:16:32.317Z,48.57
2018-12-22T05:17:31.628Z,48.64
2018-12-22T05:18:31.616Z,48.62
2018-12-22T05:19:31.682Z,48.62
2018-12-22T05:20:31.500Z,48.53
2018-12-22T05:21:31.753Z,48.6
2018-12-22T05:22:31.564Z,48.61
2018-12-22T05:23:30.782Z,48.6
2018-12-22T05:24:31.354Z,48.61
2018-12-22T05:25:31.480Z,48.59
2018-12-22T05:26:31.453Z,48.54
2018-12-22T05:27:31.558Z,48.55
2018-12-22T05:28:31.518Z,48.56
2018-12-22T05:29:31.632Z,48.64
2018-12-22T05:30:31.452Z,48.56
2018-12-22T05:31:31.668Z,48.59
2018-12-22T05:32:31.728Z,48.6
2018-12-22T05:33:31.792Z,48.64
2018-12-22T05:34:31.557Z,48.59
2018-12-22T05:35:31.363Z,48.63
2018-12-22T05:36:32.041Z,48.62
2018-12-22T05:37:31.457Z,48.63
2018-12-22T05:38:31.752Z,48.56
2018-12-22T05:39:31.577Z,48.61
2018-12-22T05:40:31.311Z,48.64
2018-12-22T05:41:31.978Z,48.6
2018-12-22T05:42:31.679Z,48.56
2018-12-22T05:43:31.720Z,48.58
2018-12-22T05:44:31.543Z,48.61
2018-12-22T05:45:31.358Z,48.61
2018-12-22T05:46:31.649Z,48.6
2018-12-22T05:47:31.452Z,48.58
2018-12-22T05:48:31.459Z,48.61
2018-12-22T05:49:31.259Z,48.6
2018-12-22T05:50:31.312Z,48.57
2018-12-22T05:51:31.329Z,48.6
2018-12-22T05:52:31.874Z,48.55
2018-12-22T05:53:31.390Z,48.53
2018-12-22T05:54:31.704Z,48.56
2018-12-22T05:55:31.805Z,48.58
2018-12-22T05:56:31.579Z,48.6
2018-12-22T05:57:31.584Z,48.53
2018-12-22T05:58:31.323Z,48.49
2018-12-22T05:59:31.882Z,48.56
2018-12-22T06:00:31.411Z,48.6
2018-12-22T06:01:31.719Z,48.51
2018-12-22T06:02:31.250Z,48.59
2018-12-22T06:03:31.571Z,48.58
2018-12-22T06:04:31.862Z,48.54
2018-12-22T06:05:31.350Z,48.58
2018-12-22T06:06:31.014Z,48.59
2018-12-22T06:07:31.410Z,48.57
2018-12-22T06:08:31.870Z,48.54
2018-12-22T06:09:31.564Z,48.58
2018-12-22T06:10:31.318Z,48.53
2018-12-22T06:11:31.660Z,48.57
2018-12-22T06:12:31.425Z,48.52
2018-12-22T06:13:32.221Z,48.56
2018-12-22T06:14:31.548Z,48.59
2018-12-22T06:15:31.550Z,48.56
2018-12-22T06:16:31.598Z,48.56
2018-12-22T06:17:31.397Z,48.54
2018-12-22T06:18:31.932Z,48.55
2018-12-22T06:19:30.920Z,48.61
2018-12-22T06:20:31.756Z,48.52
2018-12-22T06:21:31.356Z,48.55
2018-12-22T06:22:31.616Z,48.53
2018-12-22T06:23:31.627Z,48.53
2018-12-22T06:24:31.380Z,48.55
2018-12-22T06:25:31.649Z,48.49
2018-12-22T06:26:31.441Z,48.52
2018-12-22T06:27:31.198Z,48.49
2018-12-22T06:28:31.498Z,48.5
2018-12-22T06:29:31.322Z,48.51
2018-12-22T06:30:31.841Z,48.53
2018-12-22T06:31:31.167Z,48.5
2018-12-22T06:32:31.429Z,48.53
2018-12-22T06:33:31.409Z,48.46
2018-12-22T06:34:31.045Z,48.44
2018-12-22T06:35:31.812Z,48.53
2018-12-22T06:36:31.623Z,48.48
2018-12-22T06:37:31.135Z,48.5
2018-12-22T06:38:31.407Z,48.48
2018-12-22T06:39:31.475Z,48.47
2018-12-22T06:40:31.114Z,48.5
2018-12-22T06:41:31.528Z,48.51
2018-12-22T06:42:31.338Z,48.49
2018-12-22T06:43:31.389Z,48.48
2018-12-22T06:44:31.402Z,48.49
2018-12-22T06:45:31.419Z,48.46
2018-12-22T06:46:31.698Z,48.49
2018-12-22T06:47:31.522Z,48.48
2018-12-22T06:48:31.559Z,48.47
2018-12-22T06:49:31.335Z,48.47
2018-12-22T06:50:31.671Z,48.41
2018-12-22T06:51:31.440Z,48.44
2018-12-22T06:52:31.439Z,48.43
2018-12-22T06:53:31.487Z,48.4
2018-12-22T06:54:31.822Z,48.44
2018-12-22T06:55:31.298Z,48.44
2018-12-22T06:56:31.610Z,48.4
2018-12-22T06:57:31.665Z,48.41
2018-12-22T06:58:31.450Z,48.42
2018-12-22T06:59:31.474Z,48.39
2018-12-22T07:00:31.567Z,48.37
2018-12-22T07:01:31.882Z,48.38
2018-12-22T07:02:31.089Z,48.37
2018-12-22T07:03:31.212Z,48.38
2018-12-22T07:04:31.458Z,48.43
2018-12-22T07:05:31.566Z,48.36
2018-12-22T07:06:31.322Z,48.34
2018-12-22T07:07:31.636Z,48.36
2018-12-22T07:08:31.665Z,48.36
2018-12-22T07:09:31.736Z,48.32
2018-12-22T07:10:31.476Z,48.33
2018-12-22T07:11:31.709Z,48.34
2018-12-22T07:12:31.581Z,48.36
2018-12-22T07:13:31.511Z,48.31
2018-12-22T07:14:31.530Z,48.35
2018-12-22T07:15:31.465Z,48.31
2018-12-22T07:16:31.250Z,48.34
2018-12-22T07:17:31.729Z,48.31
2018-12-22T07:18:31.715Z,48.3
2018-12-22T07:19:31.156Z,48.3
2018-12-22T07:20:31.916Z,48.29
2018-12-22T07:21:31.722Z,48.31
2018-12-22T07:22:31.010Z,48.32
2018-12-22T07:23:31.570Z,48.3
2018-12-22T07:24:31.276Z,48.3
2018-12-22T07:25:31.099Z,48.26
2018-12-22T07:26:31.395Z,48.26
2018-12-22T07:27:31.490Z,48.27
2018-12-22T07:28:31.443Z,48.29
2018-12-22T07:29:31.282Z,48.23
2018-12-22T07:30:31.862Z,48.24
2018-12-22T07:31:31.583Z,48.29
2018-12-22T07:32:30.855Z,48.26
2018-12-22T07:33:31.446Z,48.26
2018-12-22T07:34:31.672Z,48.27
2018-12-22T07:35:31.478Z,48.29
2018-12-22T07:36:31.268Z,48.28
2018-12-22T07:37:31.320Z,48.29
2018-12-22T07:38:31.620Z,48.26
2018-12-22T07:39:31.638Z,48.26
2018-12-22T07:40:31.614Z,48.25
2018-12-22T07:41:31.465Z,48.26
2018-12-22T07:42:31.475Z,48.23
2018-12-22T07:43:31.707Z,48.27
2018-12-22T07:44:31.309Z,48.25
2018-12-22T07:45:31.631Z,48.24
2018-12-22T07:46:32.135Z,48.24
2018-12-22T07:47:31.390Z,48.21
2018-12-22T07:48:31.702Z,48.24
2018-12-22T07:49:31.768Z,48.24
2018-12-22T07:50:31.538Z,48.18
2018-12-22T07:51:31.548Z,48.25
2018-12-22T07:52:31.324Z,48.24
2018-12-22T07:53:31.909Z,48.18
2018-12-22T07:54:31.443Z,48.24
2018-12-22T07:55:31.469Z,48.18
2018-12-22T07:56:31.495Z,48.2
2018-12-22T07:57:31.791Z,48.17
2018-12-22T07:58:31.551Z,48.2
2018-12-22T07:59:31.336Z,48.14
2018-12-22T08:00:35.592Z,48.14
2018-12-22T08:01:31.375Z,48.19
2018-12-22T08:02:31.476Z,48.16
2018-12-22T08:03:31.453Z,48.17
2018-12-22T08:04:31.493Z,48.14
2018-12-22T08:05:39.399Z,48.17
2018-12-22T08:06:31.238Z,48.19
2018-12-22T08:07:31.823Z,48.17
2018-12-22T08:08:31.294Z,48.18
2018-12-22T08:09:31.454Z,48.14
2018-12-22T08:10:31.246Z,48.18
2018-12-22T08:11:31.550Z,48.17
2018-12-22T08:12:31.524Z,48.17
2018-12-22T08:13:31.826Z,48.1
2018-12-22T08:14:31.403Z,48.1
2018-12-22T08:15:31.392Z,48.08
2018-12-22T08:16:31.186Z,48.09
2018-12-22T08:17:31.472Z,48.12
2018-12-22T08:18:31.538Z,48.12
2018-12-22T08:19:31.369Z,48.07
2018-12-22T08:20:31.343Z,48.11
2018-12-22T08:21:31.454Z,48.1
2018-12-22T08:22:30.942Z,48.03
2018-12-22T08:23:31.509Z,48.08
2018-12-22T08:24:31.302Z,48.09
2018-12-22T08:25:31.149Z,48.08
2018-12-22T08:26:31.897Z,48.07
2018-12-22T08:27:31.431Z,48.07
2018-12-22T08:28:31.217Z,48.1
2018-12-22T08:29:31.531Z,48.08
2018-12-22T08:30:31.805Z,48.07
2018-12-22T08:31:31.582Z,48.02
2018-12-22T08:32:31.668Z,48.04
2018-12-22T08:33:31.451Z,48.05
2018-12-22T08:34:31.730Z,48.09
2018-12-22T08:35:31.204Z,48.09
2018-12-22T08:36:31.482Z,48.05
2018-12-22T08:37:31.281Z,48.05
2018-12-22T08:38:31.330Z,48.04
2018-12-22T08:39:31.430Z,48.08
2018-12-22T08:40:31.184Z,48.03
2018-12-22T08:41:31.439Z,48.04
2018-12-22T08:42:31.527Z,48.05
2018-12-22T08:43:31.512Z,48.03
2018-12-22T08:44:31.332Z,48.01
2018-12-22T08:45:31.451Z,48.05
2018-12-22T08:46:31.374Z,48.03
2018-12-22T08:47:30.894Z,48.05
2018-12-22T08:48:31.524Z,48.08
2018-12-22T08:49:32.246Z,48.03
2018-12-22T08:50:31.584Z,48.03
2018-12-22T08:51:30.555Z,48
2018-12-22T08:52:31.674Z,48.03
2018-12-22T08:53:31.424Z,48.02
2018-12-22T08:54:31.530Z,48
2018-12-22T08:55:31.505Z,48.04
2018-12-22T08:56:31.018Z,48.03
2018-12-22T08:57:31.635Z,48.02
2018-12-22T08:58:31.739Z,47.99
2018-12-22T08:59:31.155Z,48.04
2018-12-22T09:00:31.522Z,48.02
2018-12-22T09:01:31.268Z,48.02
2018-12-22T09:02:31.332Z,48.03
2018-12-22T09:03:31.635Z,48
2018-12-22T09:04:31.621Z,48.02
2018-12-22T09:05:31.511Z,48.01
2018-12-22T09:06:31.957Z,48.01
2018-12-22T09:07:31.491Z,47.99
2018-12-22T09:08:30.987Z,48.01
2018-12-22T09:09:31.448Z,47.97
2018-12-22T09:10:31.428Z,48.01
2018-12-22T09:11:31.762Z,47.96
2018-12-22T09:12:32.296Z,47.99
2018-12-22T09:13:31.336Z,47.99
2018-12-22T09:14:31.837Z,47.96
2018-12-22T09:15:31.443Z,47.96
2018-12-22T09:16:31.452Z,48.06
2018-12-22T09:17:31.507Z,48
2018-12-22T09:18:31.250Z,48
2018-12-22T09:19:31.375Z,47.97
2018-12-22T09:20:32.096Z,47.95
2018-12-22T09:21:31.663Z,47.93
2018-12-22T09:22:31.161Z,47.96
2018-12-22T09:23:31.723Z,47.95
2018-12-22T09:24:31.284Z,47.93
2018-12-22T09:25:31.304Z,47.93
2018-12-22T09:26:31.397Z,47.94
2018-12-22T09:27:31.689Z,47.94
2018-12-22T09:28:31.485Z,47.91
2018-12-22T09:29:31.493Z,47.93
2018-12-22T09:30:31.279Z,47.9
2018-12-22T09:31:33.425Z,47.9
2018-12-22T09:32:31.618Z,47.93
2018-12-22T09:33:31.397Z,47.96
2018-12-22T09:34:32.180Z,47.94
2018-12-22T09:35:31.647Z,47.9
2018-12-22T09:36:31.278Z,47.91
2018-12-22T09:37:31.554Z,47.93
2018-12-22T09:38:31.327Z,47.93
2018-12-22T09:39:31.359Z,47.97
2018-12-22T09:40:31.607Z,47.88
2018-12-22T09:41:32.245Z,47.93
2018-12-22T09:42:31.275Z,47.93
2018-12-22T09:43:31.040Z,47.93
2018-12-22T09:44:31.645Z,47.9
2018-12-22T09:45:31.616Z,47.91
2018-12-22T09:46:32.221Z,47.91
2018-12-22T09:47:31.540Z,47.91
2018-12-22T09:48:31.284Z,47.9
2018-12-22T09:49:31.267Z,47.88
2018-12-22T09:50:31.376Z,47.89
2018-12-22T09:51:31.497Z,47.89
2018-12-22T09:52:31.128Z,47.92
2018-12-22T09:53:31.331Z,47.89
2018-12-22T09:54:31.428Z,48.24
2018-12-22T09:55:31.280Z,49.11
2018-12-22T09:56:31.541Z,49.14
2018-12-22T09:57:31.302Z,49.31
2018-12-22T09:58:31.076Z,49.33
2018-12-22T09:59:31.410Z,49.09
2018-12-22T10:00:31.693Z,48.98
2018-12-22T10:01:30.968Z,48.93
2018-12-22T10:02:31.263Z,48.76
2018-12-22T10:03:31.270Z,48.72
2018-12-22T10:04:31.354Z,48.45
2018-12-22T10:05:31.368Z,48.32
2018-12-22T10:06:31.639Z,48.44
2018-12-22T10:07:31.417Z,48.68
2018-12-22T10:08:31.712Z,48.9
2018-12-22T10:09:31.665Z,48.63
2018-12-22T10:10:31.257Z,48.44
2018-12-22T10:11:31.386Z,48.44
2018-12-22T10:12:31.641Z,48.46
2018-12-22T10:13:31.418Z,48.46
2018-12-22T10:14:31.411Z,48.57
2018-12-22T10:15:31.631Z,48.42
2018-12-22T10:16:28.315Z,49.04
2018-12-22T10:17:28.391Z,48.42
2018-12-22T10:18:28.540Z,48.31
2018-12-22T10:19:11.436Z,48.29
2018-12-22T10:20:11.746Z,48.27
2018-12-22T10:21:11.539Z,48.18
2018-12-22T10:22:11.594Z,48.13
2018-12-22T10:23:11.875Z,48.17
2018-12-22T10:24:11.663Z,48.1
2018-12-22T10:25:11.670Z,48.13
2018-12-22T10:26:11.750Z,48.15
2018-12-22T10:27:12.285Z,48.03
2018-12-22T10:28:11.589Z,47.84
2018-12-22T10:29:11.906Z,47.94
2018-12-22T10:30:11.333Z,48.02
2018-12-22T10:31:18.621Z,48.15
2018-12-22T10:32:11.351Z,49.23
2018-12-22T10:33:11.375Z,48.04
2018-12-22T10:34:11.959Z,47.96
2018-12-22T10:35:11.199Z,47.89
2018-12-22T10:36:11.554Z,47.85
2018-12-22T10:37:11.849Z,47.84
2018-12-22T10:38:11.881Z,47.88
2018-12-22T10:39:11.441Z,47.8
2018-12-22T10:40:11.925Z,47.77
2018-12-22T10:41:11.684Z,47.73
2018-12-22T10:42:11.453Z,47.71
2018-12-22T10:42:49.474Z,47.69
2018-12-22T10:43:49.557Z,47.69
2018-12-22T10:44:49.557Z,47.68
2018-12-22T10:45:38.817Z,47.7
2018-12-22T10:46:38.570Z,47.7
2018-12-22T10:47:38.863Z,47.68
2018-12-22T10:48:38.379Z,47.65
2018-12-22T10:49:38.943Z,47.61
2018-12-22T10:50:37.886Z,47.61
2018-12-22T10:51:39.014Z,47.62
2018-12-22T10:52:39.038Z,47.67
2018-12-22T10:53:55.524Z,47.65
2018-12-22T10:54:55.093Z,47.61
2018-12-22T10:55:55.369Z,47.58
2018-12-22T10:56:55.096Z,47.58
2018-12-22T10:57:55.418Z,47.54
2018-12-22T10:58:40.753Z,47.49
2018-12-22T10:59:40.565Z,47.55
2018-12-22T11:00:40.407Z,47.52
2018-12-22T11:01:40.157Z,47.47
2018-12-22T11:02:40.443Z,47.47
2018-12-22T11:03:39.893Z,47.47
2018-12-22T11:04:40.310Z,47.43
2018-12-22T11:06:14.286Z,47.41
2018-12-22T11:07:14.099Z,47.39
2018-12-22T11:08:14.565Z,47.39
2018-12-22T11:09:14.894Z,47.38
2018-12-22T11:10:14.346Z,47.38
2018-12-22T11:11:14.272Z,47.36
2018-12-22T11:12:14.282Z,47.28
2018-12-22T11:13:14.346Z,47.33
2018-12-22T11:14:14.167Z,47.45
2018-12-22T11:15:14.302Z,47.51
2018-12-22T11:16:14.613Z,47.37
2018-12-22T11:17:14.313Z,47.31
2018-12-22T11:18:14.303Z,47.32
2018-12-22T11:19:14.227Z,47.28
2018-12-22T11:20:14.227Z,47.54
2018-12-22T11:21:14.504Z,47.42
2018-12-22T11:22:15.026Z,47.36
2018-12-22T11:23:21.042Z,47.28
2018-12-22T11:24:14.521Z,47.18
2018-12-22T11:25:13.944Z,47.19
2018-12-22T11:26:13.928Z,47.19
2018-12-22T11:27:13.880Z,47.19
2018-12-22T11:28:14.353Z,47.12
2018-12-22T11:29:14.654Z,47.16
2018-12-22T11:30:14.386Z,47.2
2018-12-22T11:31:14.310Z,47.23
2018-12-22T11:32:14.270Z,47.29
2018-12-22T11:33:14.309Z,47.24
2018-12-22T11:34:14.345Z,47.25
2018-12-22T11:35:14.284Z,47.33
2018-12-22T11:36:14.487Z,47.34
2018-12-22T11:37:14.222Z,47.29
2018-12-22T11:38:14.433Z,47.39
2018-12-22T11:39:14.177Z,47.27
2018-12-22T11:40:14.453Z,47.28
2018-12-22T11:41:14.247Z,47.23
2018-12-22T11:42:14.396Z,47.2
2018-12-22T11:43:14.180Z,47.17
2018-12-22T11:44:14.211Z,47.19
2018-12-22T11:45:12.995Z,47.18
2018-12-22T11:46:14.203Z,47.17
2018-12-22T11:47:14.166Z,47.21
2018-12-22T11:48:14.398Z,47.2
2018-12-22T11:49:13.970Z,47.15
2018-12-22T11:50:14.192Z,47.14
2018-12-22T11:51:14.416Z,47.19
2018-12-22T11:52:14.876Z,47.06
2018-12-22T11:53:14.084Z,47.12
2018-12-22T11:54:14.855Z,47.11
2018-12-22T11:55:14.696Z,47.12
2018-12-22T11:56:14.351Z,47.06
2018-12-22T11:57:14.090Z,47.04
2018-12-22T11:58:14.582Z,47.05
2018-12-22T11:59:14.245Z,46.99
2018-12-22T12:00:19.097Z,46.99
2018-12-22T12:01:14.466Z,46.96
2018-12-22T12:02:13.948Z,47.01
2018-12-22T12:03:14.196Z,47.01
2018-12-22T12:04:14.667Z,46.99
2018-12-22T12:05:14.185Z,46.95
2018-12-22T12:06:14.399Z,47.01
2018-12-22T12:07:14.430Z,47
2018-12-22T12:08:14.585Z,46.99
2018-12-22T12:09:14.502Z,46.99
2018-12-22T12:10:14.347Z,46.97
2018-12-22T12:11:14.500Z,48.76
2018-12-22T12:12:14.308Z,47.26
2018-12-22T12:13:14.561Z,47.19
2018-12-22T12:14:14.790Z,47.01
2018-12-22T12:15:13.120Z,46.96
2018-12-22T12:16:14.550Z,46.95
2018-12-22T12:17:14.283Z,46.87
2018-12-22T12:17:54.732Z,46.88
2018-12-22T12:18:54.466Z,46.88
2018-12-22T12:20:01.629Z,46.86
2018-12-22T12:22:17.049Z,47.07
2018-12-22T12:23:18.463Z,46.76
2018-12-22T12:24:18.480Z,46.98
2018-12-22T12:25:18.034Z,46.77
2018-12-22T12:26:18.312Z,46.84
2018-12-22T12:27:18.381Z,46.76
2018-12-22T12:28:18.813Z,46.87
2018-12-22T12:29:19.359Z,46.86
2018-12-22T12:30:18.783Z,46.92
2018-12-22T12:31:18.829Z,46.88
2018-12-22T12:31:53.175Z,47.03
2018-12-22T12:32:53.070Z,46.93
2018-12-22T12:33:24.154Z,47.15
2018-12-22T12:34:24.287Z,46.96
2018-12-22T12:35:24.493Z,47
2018-12-22T12:36:24.337Z,47.02
2018-12-22T12:37:24.324Z,47.08
2018-12-22T12:38:25.047Z,47.05
2018-12-22T12:39:24.564Z,47.03
2018-12-22T12:40:24.714Z,47.02
2018-12-22T12:41:35.598Z,47.02
2018-12-22T12:42:17.579Z,47.01
2018-12-22T12:43:17.349Z,47.06
2018-12-22T12:44:17.062Z,46.93
2018-12-22T12:45:17.304Z,47.03
2018-12-22T12:46:17.549Z,47.01
2018-12-22T12:47:17.283Z,47.07
2018-12-22T12:48:17.251Z,47.12
2018-12-22T12:49:16.233Z,47.15
2018-12-22T12:50:17.039Z,47.25
2018-12-22T12:51:07.771Z,48.18
2018-12-22T12:52:07.490Z,47.53
2018-12-22T12:53:10.268Z,47.17
2018-12-22T12:54:07.654Z,47.09
2018-12-22T12:55:08.004Z,47.15